createdAt,value
2019-03-31T00:00:24.619Z,27.40
2019-03-31T00:01:24.614Z,29.40
2019-03-31T00:02:24.584Z,27.20
2019-03-31T00:03:24.552Z,26.50
2019-03-31T00:04:24.530Z,28.00
2019-03-31T00:05:24.567Z,28.00
2019-03-31T00:06:25.178Z,27.60
2019-03-31T00:07:24.552Z,27.90
2019-03-31T00:08:24.518Z,27.40
2019-03-31T00:09:24.517Z,29.50
2019-03-31T00:10:24.479Z,27.60
2019-03-31T00:11:24.614Z,27.80
2019-03-31T00:12:24.548Z,26.30
2019-03-31T00:13:24.517Z,27.80
2019-03-31T00:14:24.469Z,28.50
2019-03-31T00:15:24.416Z,27.70
2019-03-31T00:16:24.428Z,27.50
2019-03-31T00:17:24.459Z,29.70
2019-03-31T00:18:24.391Z,26.70
2019-03-31T00:19:24.458Z,26.00
2019-03-31T00:20:24.456Z,27.30
2019-03-31T00:21:24.401Z,28.60
2019-03-31T00:22:24.425Z,28.00
2019-03-31T00:23:24.378Z,28.60
2019-03-31T00:24:24.343Z,28.30
2019-03-31T00:25:24.349Z,28.80
2019-03-31T00:26:24.322Z,27.10
2019-03-31T00:27:24.334Z,27.10
2019-03-31T00:28:24.369Z,29.30
2019-03-31T00:29:24.303Z,29.80
2019-03-31T00:30:24.285Z,28.90
2019-03-31T00:31:24.292Z,28.70
2019-03-31T00:32:24.291Z,29.50
2019-03-31T00:33:24.253Z,27.80
2019-03-31T00:34:24.220Z,28.80
2019-03-31T00:35:24.253Z,29.60
2019-03-31T00:36:24.226Z,29.40
2019-03-31T00:37:24.212Z,28.40
2019-03-31T00:38:24.222Z,28.40
2019-03-31T00:39:24.167Z,28.90
2019-03-31T00:40:24.227Z,27.60
2019-03-31T00:41:24.175Z,27.60
2019-03-31T00:42:24.179Z,28.50
2019-03-31T00:43:24.172Z,28.50
2019-03-31T00:44:24.165Z,28.10
2019-03-31T00:45:24.179Z,27.60
2019-03-31T00:46:24.159Z,28.70
2019-03-31T00:47:24.105Z,28.10
2019-03-31T00:48:24.109Z,29.80
2019-03-31T00:49:24.090Z,28.40
2019-03-31T00:50:24.097Z,27.80
2019-03-31T00:51:24.048Z,27.90
2019-03-31T00:52:24.038Z,28.00
2019-03-31T00:53:24.077Z,29.10
2019-03-31T00:54:24.064Z,27.10
2019-03-31T00:55:24.025Z,29.40
2019-03-31T00:56:24.004Z,27.30
2019-03-31T00:57:24.020Z,29.60
2019-03-31T00:58:23.987Z,27.30
2019-03-31T00:59:23.983Z,27.70
2019-03-31T01:00:23.992Z,27.30
2019-03-31T01:01:35.900Z,27.80
2019-03-31T01:02:24.992Z,28.20
2019-03-31T01:03:23.951Z,27.90
2019-03-31T01:04:23.908Z,26.60
2019-03-31T01:05:23.940Z,27.50
2019-03-31T01:06:23.924Z,30.20
2019-03-31T01:07:23.888Z,26.70
2019-03-31T01:08:23.952Z,27.10
2019-03-31T01:09:23.860Z,27.10
2019-03-31T01:10:23.853Z,27.70
2019-03-31T01:11:23.855Z,25.60
2019-03-31T01:12:23.869Z,25.70
2019-03-31T01:13:23.861Z,25.80
2019-03-31T01:14:23.788Z,25.80
2019-03-31T01:15:23.800Z,26.90
2019-03-31T01:16:23.806Z,26.30
2019-03-31T01:17:23.767Z,26.60
2019-03-31T01:18:23.750Z,25.80
2019-03-31T01:19:23.751Z,26.80
2019-03-31T01:20:23.749Z,25.90
2019-03-31T01:21:23.723Z,26.20
2019-03-31T01:22:23.711Z,26.00
2019-03-31T01:23:23.696Z,25.30
2019-03-31T01:24:23.727Z,26.10
2019-03-31T01:25:23.686Z,26.10
2019-03-31T01:26:23.727Z,26.60
2019-03-31T01:27:23.657Z,26.60
2019-03-31T01:28:23.641Z,26.10
2019-03-31T01:29:23.647Z,26.40
2019-03-31T01:30:23.622Z,27.00
2019-03-31T01:31:23.604Z,26.40
2019-03-31T01:32:23.621Z,28.10
2019-03-31T01:33:23.573Z,26.00
2019-03-31T01:34:23.614Z,27.00
2019-03-31T01:35:23.578Z,27.70
2019-03-31T01:36:23.553Z,27.30
2019-03-31T01:37:23.595Z,27.70
2019-03-31T01:38:23.531Z,27.10
2019-03-31T01:39:23.538Z,29.60
2019-03-31T01:40:23.515Z,28.00
2019-03-31T01:41:23.511Z,28.30
2019-03-31T01:42:23.481Z,29.30
2019-03-31T01:43:23.497Z,27.80
2019-03-31T01:44:23.522Z,29.10
2019-03-31T01:45:23.456Z,29.10
2019-03-31T01:46:23.446Z,29.40
2019-03-31T01:47:23.459Z,30.90
2019-03-31T01:48:23.449Z,28.80
2019-03-31T01:49:23.440Z,30.50
2019-03-31T01:50:23.400Z,31.20
2019-03-31T01:51:23.394Z,29.90
2019-03-31T01:52:23.403Z,30.70
2019-03-31T01:53:23.378Z,30.90
2019-03-31T01:54:23.361Z,30.80
2019-03-31T01:55:23.348Z,31.60
2019-03-31T01:56:23.350Z,32.40
2019-03-31T01:57:23.378Z,31.60
2019-03-31T01:58:23.347Z,31.80
2019-03-31T01:59:23.351Z,33.00
2019-03-31T02:00:23.296Z,32.50
2019-03-31T02:01:23.298Z,31.20
2019-03-31T02:02:23.372Z,31.30
2019-03-31T02:03:23.335Z,32.00
2019-03-31T02:04:23.289Z,32.50
2019-03-31T02:05:23.257Z,31.00
2019-03-31T02:06:23.260Z,31.30
2019-03-31T02:07:23.258Z,32.00
2019-03-31T02:08:23.210Z,32.90
2019-03-31T02:09:23.251Z,32.40
2019-03-31T02:10:23.415Z,31.70
2019-03-31T02:11:23.222Z,32.20
2019-03-31T02:12:23.262Z,32.80
2019-03-31T02:13:23.232Z,31.70
2019-03-31T02:14:23.205Z,31.70
2019-03-31T02:15:23.181Z,33.80
2019-03-31T02:16:23.229Z,33.00
2019-03-31T02:17:23.183Z,33.40
2019-03-31T02:18:23.117Z,32.30
2019-03-31T02:19:23.123Z,32.90
2019-03-31T02:20:23.175Z,32.40
2019-03-31T02:21:23.153Z,34.90
2019-03-31T02:22:23.101Z,34.30
2019-03-31T02:23:23.073Z,33.50
2019-03-31T02:24:23.081Z,33.10
2019-03-31T02:25:23.032Z,32.70
2019-03-31T02:26:23.026Z,35.10
2019-03-31T02:27:23.055Z,34.30
2019-03-31T02:28:23.050Z,35.80
2019-03-31T02:29:23.026Z,33.80
2019-03-31T02:30:23.047Z,33.80
2019-03-31T02:31:23.025Z,34.20
2019-03-31T02:32:24.712Z,34.10
2019-03-31T02:33:22.992Z,34.60
2019-03-31T02:34:22.962Z,34.60
2019-03-31T02:35:22.992Z,33.40
2019-03-31T02:36:22.984Z,33.60
2019-03-31T02:37:22.897Z,36.10
2019-03-31T02:38:22.939Z,34.10
2019-03-31T02:39:23.038Z,35.90
2019-03-31T02:40:22.914Z,36.70
2019-03-31T02:41:22.904Z,35.60
2019-03-31T02:42:22.911Z,37.00
2019-03-31T02:43:22.864Z,36.20
2019-03-31T02:44:23.015Z,35.60
2019-03-31T02:45:22.827Z,35.60
2019-03-31T02:46:22.840Z,36.00
2019-03-31T02:47:22.843Z,36.70
2019-03-31T02:48:22.841Z,36.10
2019-03-31T02:49:22.786Z,36.20
2019-03-31T02:50:22.785Z,35.70
2019-03-31T02:51:22.771Z,38.10
2019-03-31T02:52:22.780Z,36.30
2019-03-31T02:53:22.784Z,37.70
2019-03-31T02:54:22.739Z,37.60
2019-03-31T02:55:22.786Z,37.70
2019-03-31T02:56:22.724Z,38.10
2019-03-31T02:57:22.686Z,39.30
2019-03-31T02:58:22.722Z,38.20
2019-03-31T02:59:22.673Z,39.20
2019-03-31T03:00:22.689Z,40.40
2019-03-31T03:01:22.695Z,38.80
2019-03-31T03:02:40.212Z,40.40
2019-03-31T03:03:23.682Z,38.30
2019-03-31T03:04:22.691Z,38.40
2019-03-31T03:05:22.602Z,39.10
2019-03-31T03:06:22.625Z,42.00
2019-03-31T03:07:22.620Z,39.80
2019-03-31T03:08:22.678Z,40.30
2019-03-31T03:09:22.583Z,42.00
2019-03-31T03:10:22.608Z,38.10
2019-03-31T03:11:22.544Z,39.50
2019-03-31T03:12:22.605Z,39.20
2019-03-31T03:13:22.596Z,39.70
2019-03-31T03:14:22.517Z,41.20
2019-03-31T03:15:22.530Z,41.00
2019-03-31T03:16:22.576Z,40.60
2019-03-31T03:17:22.474Z,42.60
2019-03-31T03:18:22.510Z,40.60
2019-03-31T03:19:22.602Z,42.80
2019-03-31T03:20:22.457Z,40.50
2019-03-31T03:21:24.592Z,40.70
2019-03-31T03:22:22.413Z,40.50
2019-03-31T03:23:22.422Z,42.20
2019-03-31T03:24:22.450Z,41.20
2019-03-31T03:25:22.479Z,41.00
2019-03-31T03:26:22.402Z,45.40
2019-03-31T03:27:22.454Z,41.60
2019-03-31T03:28:22.509Z,41.70
2019-03-31T03:29:22.420Z,43.40
2019-03-31T03:30:22.450Z,43.30
2019-03-31T03:31:22.434Z,45.10
2019-03-31T03:32:22.604Z,43.70
2019-03-31T03:33:22.380Z,45.10
2019-03-31T03:34:22.437Z,43.30
2019-03-31T03:35:22.354Z,44.50
2019-03-31T03:36:22.301Z,44.50
2019-03-31T03:37:22.319Z,44.10
2019-03-31T03:38:22.286Z,44.90
2019-03-31T03:39:22.282Z,46.10
2019-03-31T03:40:22.313Z,47.30
2019-03-31T03:41:22.255Z,43.80
2019-03-31T03:42:22.307Z,45.20
2019-03-31T03:43:22.259Z,44.20
2019-03-31T03:44:22.259Z,43.40
2019-03-31T03:45:22.374Z,43.20
2019-03-31T03:46:22.256Z,45.40
2019-03-31T03:47:22.184Z,45.30
2019-03-31T03:48:22.265Z,45.40
2019-03-31T03:49:22.150Z,45.40
2019-03-31T03:50:22.206Z,45.20
2019-03-31T03:51:22.275Z,45.50
2019-03-31T03:52:22.136Z,47.30
2019-03-31T03:53:22.122Z,48.10
2019-03-31T03:54:22.142Z,49.00
2019-03-31T03:55:22.106Z,46.10
2019-03-31T03:56:22.240Z,45.20
2019-03-31T03:57:22.065Z,49.20
2019-03-31T03:58:22.213Z,45.80
2019-03-31T03:59:22.083Z,45.70
2019-03-31T04:00:22.067Z,48.70
2019-03-31T04:01:22.074Z,48.40
2019-03-31T04:02:22.022Z,48.20
2019-03-31T04:03:30.268Z,49.40
2019-03-31T04:04:23.041Z,46.80
2019-03-31T04:05:22.031Z,49.60
2019-03-31T04:06:21.981Z,49.40
2019-03-31T04:07:22.015Z,48.10
2019-03-31T04:08:21.977Z,49.40
2019-03-31T04:09:21.986Z,44.90
2019-03-31T04:10:21.964Z,49.50
2019-03-31T04:11:22.102Z,47.90
2019-03-31T04:12:21.944Z,46.40
2019-03-31T04:13:21.963Z,47.80
2019-03-31T04:14:21.944Z,48.20
2019-03-31T04:15:21.909Z,47.20
2019-03-31T04:16:21.875Z,49.70
2019-03-31T04:17:21.875Z,48.80
2019-03-31T04:18:21.953Z,49.00
2019-03-31T04:19:21.852Z,49.50
2019-03-31T04:20:22.097Z,51.10
2019-03-31T04:21:21.836Z,48.60
2019-03-31T04:22:21.812Z,50.40
2019-03-31T04:23:21.817Z,52.00
2019-03-31T04:24:21.837Z,52.80
2019-03-31T04:25:21.821Z,51.00
2019-03-31T04:26:21.828Z,51.90
2019-03-31T04:27:21.752Z,51.60
2019-03-31T04:28:21.756Z,51.80
2019-03-31T04:29:21.743Z,51.10
2019-03-31T04:30:21.730Z,52.40
2019-03-31T04:31:21.759Z,51.20
2019-03-31T04:32:21.706Z,50.60
2019-03-31T04:33:21.693Z,51.70
2019-03-31T04:34:21.750Z,54.00
2019-03-31T04:35:21.715Z,51.00
2019-03-31T04:36:21.650Z,54.20
2019-03-31T04:37:21.634Z,51.70
2019-03-31T04:38:21.641Z,55.00
2019-03-31T04:39:21.800Z,56.00
2019-03-31T04:40:21.594Z,55.30
2019-03-31T04:41:21.640Z,55.60
2019-03-31T04:42:21.722Z,54.40
2019-03-31T04:43:21.558Z,54.70
2019-03-31T04:44:21.592Z,53.00
2019-03-31T04:45:21.580Z,52.80
2019-03-31T04:46:21.573Z,54.10
2019-03-31T04:47:21.548Z,54.60
2019-03-31T04:48:21.503Z,54.20
2019-03-31T04:49:21.535Z,54.10
2019-03-31T04:50:21.546Z,54.70
2019-03-31T04:51:21.573Z,57.40
2019-03-31T04:52:21.513Z,55.60
2019-03-31T04:53:21.500Z,54.00
2019-03-31T04:54:21.467Z,55.40
2019-03-31T04:55:21.478Z,52.90
2019-03-31T04:56:21.458Z,57.70
2019-03-31T04:57:21.477Z,56.90
2019-03-31T04:58:21.421Z,57.80
2019-03-31T05:00:38.501Z,54.20
2019-03-31T05:01:38.574Z,56.50
2019-03-31T05:02:38.506Z,56.40
2019-03-31T05:03:38.476Z,57.00
2019-03-31T05:04:38.483Z,55.90
2019-03-31T05:05:38.473Z,56.40
2019-03-31T05:06:38.447Z,55.60
2019-03-31T05:07:38.472Z,57.60
2019-03-31T05:08:38.514Z,56.30
2019-03-31T05:09:38.419Z,58.70
2019-03-31T05:10:38.409Z,58.70
2019-03-31T05:11:38.403Z,59.80
2019-03-31T05:12:38.423Z,59.30
2019-03-31T05:13:38.408Z,58.50
2019-03-31T05:14:38.355Z,59.10
2019-03-31T05:15:38.358Z,61.30
2019-03-31T05:16:38.347Z,58.10
2019-03-31T05:17:38.342Z,61.00
2019-03-31T05:18:38.428Z,61.50
2019-03-31T05:19:38.313Z,63.10
2019-03-31T05:20:38.309Z,61.00
2019-03-31T05:21:38.299Z,59.20
2019-03-31T05:22:38.317Z,64.70
2019-03-31T05:23:38.312Z,62.30
2019-03-31T05:24:38.255Z,62.80
2019-03-31T05:25:38.258Z,63.60
2019-03-31T05:26:38.259Z,62.80
2019-03-31T05:27:38.234Z,62.50
2019-03-31T05:28:38.250Z,61.40
2019-03-31T05:29:38.241Z,60.70
2019-03-31T05:30:38.213Z,63.00
2019-03-31T05:31:38.218Z,64.20
2019-03-31T05:32:38.276Z,61.20
2019-03-31T05:33:38.214Z,63.30
2019-03-31T05:34:38.160Z,61.30
2019-03-31T05:35:38.263Z,60.30
2019-03-31T05:36:38.202Z,62.30
2019-03-31T05:37:50.300Z,60.70
2019-03-31T05:38:39.135Z,65.40
2019-03-31T05:39:38.109Z,58.90
2019-03-31T05:40:38.094Z,59.50
2019-03-31T05:41:38.094Z,64.20
2019-03-31T05:42:38.113Z,64.30
2019-03-31T05:43:38.058Z,59.50
2019-03-31T05:44:38.065Z,61.80
2019-03-31T05:45:38.076Z,61.60
2019-03-31T05:46:38.035Z,59.80
2019-03-31T05:47:38.051Z,60.70
2019-03-31T05:48:38.084Z,56.10
2019-03-31T05:49:37.986Z,59.00
2019-03-31T05:50:38.134Z,58.70
2019-03-31T05:51:38.073Z,56.10
2019-03-31T05:52:37.977Z,54.60
2019-03-31T05:53:37.967Z,56.00
2019-03-31T05:54:37.988Z,56.40
2019-03-31T05:55:37.936Z,56.20
2019-03-31T05:56:38.001Z,54.30
2019-03-31T05:57:37.984Z,51.20
2019-03-31T05:58:37.950Z,56.30
2019-03-31T05:59:38.947Z,53.70
2019-03-31T06:00:37.922Z,52.20
2019-03-31T06:01:37.879Z,53.50
2019-03-31T06:02:37.865Z,54.10
2019-03-31T06:03:37.922Z,52.90
2019-03-31T06:04:38.018Z,53.00
2019-03-31T06:05:37.859Z,50.10
2019-03-31T06:06:37.825Z,52.80
2019-03-31T06:07:37.967Z,51.80
2019-03-31T06:08:37.879Z,52.80
2019-03-31T06:09:37.840Z,54.10
2019-03-31T06:10:37.783Z,49.30
2019-03-31T06:11:37.922Z,51.00
2019-03-31T06:12:37.759Z,49.50
2019-03-31T06:13:37.933Z,49.60
2019-03-31T06:14:37.753Z,51.30
2019-03-31T06:15:37.741Z,49.90
2019-03-31T06:16:37.771Z,49.10
2019-03-31T06:17:38.377Z,49.10
2019-03-31T06:18:37.962Z,48.60
2019-03-31T06:19:38.246Z,49.90
2019-03-31T06:20:37.762Z,50.70
2019-03-31T06:21:37.806Z,49.00
2019-03-31T06:22:37.669Z,47.10
2019-03-31T06:23:37.661Z,48.00
2019-03-31T06:24:37.649Z,47.90
2019-03-31T06:25:37.608Z,45.30
2019-03-31T06:26:37.665Z,47.40
2019-03-31T06:27:37.621Z,47.30
2019-03-31T06:28:37.722Z,42.50
2019-03-31T06:29:37.575Z,45.40
2019-03-31T06:30:38.308Z,44.00
2019-03-31T06:31:38.249Z,45.70
2019-03-31T06:32:37.589Z,44.60
2019-03-31T06:33:37.568Z,43.60
2019-03-31T06:34:47.332Z,42.90
2019-03-31T06:35:38.580Z,42.70
2019-03-31T06:36:37.512Z,41.60
2019-03-31T06:37:37.974Z,44.60
2019-03-31T06:38:37.530Z,41.10
2019-03-31T06:39:38.260Z,39.90
2019-03-31T06:40:37.639Z,38.50
2019-03-31T06:41:37.532Z,40.70
2019-03-31T06:42:37.436Z,40.40
2019-03-31T06:43:37.470Z,37.60
2019-03-31T06:44:38.239Z,38.10
2019-03-31T06:45:37.517Z,37.10
2019-03-31T06:46:37.427Z,37.60
2019-03-31T06:47:37.554Z,37.40
2019-03-31T06:48:38.254Z,37.70
2019-03-31T06:49:37.512Z,35.80
2019-03-31T06:50:37.558Z,35.50
2019-03-31T06:51:37.374Z,34.50
2019-03-31T06:52:37.391Z,36.50
2019-03-31T06:53:37.364Z,34.20
2019-03-31T06:54:37.336Z,31.90
2019-03-31T06:55:37.863Z,34.10
2019-03-31T06:56:37.327Z,33.70
2019-03-31T06:57:37.318Z,34.00
2019-03-31T06:58:37.432Z,34.40
2019-03-31T06:59:37.365Z,37.50
2019-03-31T07:00:37.239Z,35.90
2019-03-31T07:01:37.903Z,36.50
2019-03-31T07:02:37.753Z,34.90
2019-03-31T07:03:37.339Z,34.20
2019-03-31T07:04:37.258Z,34.00
2019-03-31T07:05:37.753Z,32.50
2019-03-31T07:06:37.183Z,32.90
2019-03-31T07:07:37.213Z,32.10
2019-03-31T07:08:37.213Z,33.60
2019-03-31T07:09:37.209Z,34.80
2019-03-31T07:10:37.158Z,32.10
2019-03-31T07:11:37.151Z,35.30
2019-03-31T07:12:37.230Z,30.10
2019-03-31T07:13:37.144Z,32.00
2019-03-31T07:14:37.164Z,32.50
2019-03-31T07:15:37.124Z,31.10
2019-03-31T07:16:37.091Z,31.60
2019-03-31T07:17:37.087Z,32.20
2019-03-31T07:18:37.086Z,32.50
2019-03-31T07:19:37.097Z,31.70
2019-03-31T07:20:37.098Z,31.60
2019-03-31T07:21:37.065Z,33.10
2019-03-31T07:22:37.022Z,31.50
2019-03-31T07:23:37.001Z,30.90
2019-03-31T07:24:37.075Z,29.40
2019-03-31T07:25:37.393Z,30.70
2019-03-31T07:26:37.004Z,31.20
2019-03-31T07:27:37.009Z,32.80
2019-03-31T07:28:37.007Z,31.50
2019-03-31T07:29:36.953Z,30.40
2019-03-31T07:30:36.936Z,30.80
2019-03-31T07:31:36.921Z,29.40
2019-03-31T07:32:36.941Z,30.50
2019-03-31T07:33:36.894Z,30.70
2019-03-31T07:34:36.904Z,28.90
2019-03-31T07:35:38.947Z,29.70
2019-03-31T07:36:36.900Z,29.40
2019-03-31T07:37:47.052Z,27.90
2019-03-31T07:38:39.230Z,28.30
2019-03-31T07:39:37.201Z,28.30
2019-03-31T07:40:37.047Z,29.40
2019-03-31T07:41:36.845Z,30.80
2019-03-31T07:42:36.802Z,31.70
2019-03-31T07:43:36.849Z,30.50
2019-03-31T07:44:37.341Z,38.70
2019-03-31T07:45:36.765Z,33.50
2019-03-31T07:46:36.839Z,33.30
2019-03-31T07:47:36.781Z,31.50
2019-03-31T07:48:36.798Z,31.30
2019-03-31T07:49:36.751Z,30.80
2019-03-31T07:50:36.751Z,31.70
2019-03-31T07:51:37.615Z,31.60
2019-03-31T07:52:36.733Z,31.40
2019-03-31T07:54:55.574Z,32.20
2019-03-31T07:56:04.444Z,32.70
2019-03-31T07:56:55.042Z,31.50
2019-03-31T07:57:55.108Z,28.20
2019-03-31T07:58:55.719Z,30.80
2019-03-31T08:00:18.500Z,29.30
2019-03-31T08:00:55.153Z,27.60
2019-03-31T08:01:55.436Z,27.80
2019-03-31T08:02:55.079Z,26.70
2019-03-31T08:04:06.497Z,27.50
2019-03-31T08:04:55.865Z,28.70
2019-03-31T08:05:55.021Z,24.40
2019-03-31T08:06:54.952Z,24.70
2019-03-31T08:07:54.938Z,24.20
2019-03-31T08:08:54.966Z,23.40
2019-03-31T08:10:04.615Z,24.10
2019-03-31T08:10:54.958Z,20.90
2019-03-31T08:11:54.947Z,20.90
2019-03-31T08:12:54.894Z,20.90
2019-03-31T08:13:55.341Z,18.20
2019-03-31T08:14:54.978Z,19.60
2019-03-31T08:15:54.909Z,19.00
2019-03-31T08:16:54.900Z,19.70
2019-03-31T08:17:54.901Z,19.00
2019-03-31T08:18:54.876Z,19.10
2019-03-31T08:19:54.806Z,20.60
2019-03-31T08:20:54.860Z,20.00
2019-03-31T08:21:54.801Z,20.60
2019-03-31T08:22:57.152Z,21.80
2019-03-31T08:23:54.774Z,21.40
2019-03-31T08:24:54.795Z,20.90
2019-03-31T08:25:54.759Z,21.60
2019-03-31T08:26:54.758Z,22.90
2019-03-31T08:27:54.730Z,22.60
2019-03-31T08:28:54.732Z,23.50
2019-03-31T08:30:00.410Z,24.90
2019-03-31T08:30:55.747Z,26.10
2019-03-31T08:31:54.713Z,25.40
2019-03-31T08:32:54.713Z,23.80
2019-03-31T08:33:54.677Z,23.90
2019-03-31T08:34:54.685Z,24.20
2019-03-31T08:35:54.668Z,24.10
2019-03-31T08:36:54.673Z,24.60
2019-03-31T08:37:54.710Z,24.50
2019-03-31T08:38:54.629Z,24.20
2019-03-31T08:39:54.611Z,24.00
2019-03-31T08:40:54.628Z,25.20
2019-03-31T08:41:54.599Z,24.90
2019-03-31T08:42:54.610Z,24.50
2019-03-31T08:43:54.583Z,22.90
2019-03-31T08:44:55.478Z,23.00
2019-03-31T08:45:54.539Z,22.10
2019-03-31T08:46:54.566Z,23.30
2019-03-31T08:47:54.546Z,22.20
2019-03-31T08:48:54.538Z,23.20
2019-03-31T08:49:54.526Z,22.90
2019-03-31T08:50:54.490Z,20.20
2019-03-31T08:51:54.493Z,20.50
2019-03-31T08:52:54.572Z,21.70
2019-03-31T08:53:54.484Z,22.00
2019-03-31T08:54:54.475Z,22.30
2019-03-31T08:55:54.496Z,20.60
2019-03-31T08:56:55.464Z,21.30
2019-03-31T08:57:54.470Z,20.10
2019-03-31T08:58:54.413Z,20.60
2019-03-31T08:59:54.532Z,20.50
2019-03-31T09:00:54.436Z,19.50
2019-03-31T09:01:54.371Z,20.20
2019-03-31T09:02:54.441Z,21.40
2019-03-31T09:03:54.406Z,21.20
2019-03-31T09:04:54.365Z,21.30
2019-03-31T09:06:01.842Z,19.90
2019-03-31T09:06:57.076Z,20.50
2019-03-31T09:07:55.627Z,21.40
2019-03-31T09:08:54.307Z,20.90
2019-03-31T09:09:54.401Z,23.90
2019-03-31T09:10:54.984Z,20.60
2019-03-31T09:11:54.690Z,22.10
2019-03-31T09:12:54.261Z,21.00
2019-03-31T09:13:54.281Z,21.90
2019-03-31T09:14:54.492Z,20.40
2019-03-31T09:15:54.225Z,21.70
2019-03-31T09:16:54.227Z,23.40
2019-03-31T09:17:54.601Z,21.10
2019-03-31T09:18:54.205Z,23.00
2019-03-31T09:19:54.207Z,22.00
2019-03-31T09:20:54.176Z,22.90
2019-03-31T09:21:54.154Z,22.90
2019-03-31T09:22:55.115Z,25.50
2019-03-31T09:23:54.184Z,24.10
2019-03-31T09:24:55.078Z,26.40
2019-03-31T09:25:54.188Z,23.00
2019-03-31T09:26:54.117Z,23.90
2019-03-31T09:27:54.192Z,21.20
2019-03-31T09:28:54.109Z,20.40
2019-03-31T09:29:54.122Z,20.70
2019-03-31T09:30:54.138Z,21.00
2019-03-31T09:31:54.612Z,21.90
2019-03-31T09:32:54.134Z,20.30
2019-03-31T09:33:54.033Z,21.00
2019-03-31T09:34:54.048Z,23.10
2019-03-31T09:36:15.031Z,21.30
2019-03-31T09:36:55.478Z,19.70
2019-03-31T09:37:54.065Z,22.00
2019-03-31T09:38:54.650Z,20.70
2019-03-31T09:39:55.986Z,19.70
2019-03-31T09:40:54.101Z,18.00
2019-03-31T09:41:54.632Z,17.60
2019-03-31T09:42:56.026Z,20.30
2019-03-31T09:43:54.006Z,19.10
2019-03-31T09:44:53.950Z,18.70
2019-03-31T09:45:56.039Z,18.30
2019-03-31T09:46:54.029Z,19.30
2019-03-31T09:47:53.910Z,15.70
2019-03-31T09:48:54.014Z,17.60
2019-03-31T09:49:54.278Z,17.80
2019-03-31T09:50:56.420Z,16.80
2019-03-31T09:51:53.996Z,17.60
2019-03-31T09:52:54.299Z,15.70
2019-03-31T09:53:54.523Z,17.90
2019-03-31T09:54:54.001Z,16.80
2019-03-31T09:55:53.986Z,16.90
2019-03-31T09:56:53.924Z,16.80
2019-03-31T09:57:54.545Z,15.50
2019-03-31T09:58:53.926Z,19.20
2019-03-31T09:59:54.515Z,17.80
2019-03-31T10:00:53.899Z,17.40
2019-03-31T10:01:53.852Z,16.30
2019-03-31T10:02:53.850Z,16.30
2019-03-31T10:03:53.743Z,17.10
2019-03-31T10:04:55.054Z,14.60
2019-03-31T10:05:53.713Z,15.60
2019-03-31T10:06:53.677Z,17.40
2019-03-31T10:07:53.703Z,17.70
2019-03-31T10:08:53.678Z,14.70
2019-03-31T10:09:53.702Z,13.80
2019-03-31T10:10:53.652Z,12.30
2019-03-31T10:11:53.707Z,13.00
2019-03-31T10:12:53.872Z,15.70
2019-03-31T10:13:53.953Z,14.70
2019-03-31T10:14:54.383Z,14.80
2019-03-31T10:15:53.772Z,14.70
2019-03-31T10:16:53.640Z,14.40
2019-03-31T10:17:53.622Z,14.30
2019-03-31T10:18:53.561Z,14.30
2019-03-31T10:19:53.569Z,14.70
2019-03-31T10:20:53.600Z,11.80
2019-03-31T10:21:53.535Z,13.50
2019-03-31T10:22:53.552Z,12.50
2019-03-31T10:23:53.521Z,12.80
2019-03-31T10:24:53.525Z,11.60
2019-03-31T10:25:53.490Z,11.60
2019-03-31T10:26:53.486Z,11.80
2019-03-31T10:27:53.487Z,11.90
2019-03-31T10:28:53.541Z,11.30
2019-03-31T10:29:53.548Z,12.60
2019-03-31T10:30:53.440Z,9.60
2019-03-31T10:31:54.407Z,11.60
2019-03-31T10:32:54.712Z,14.40
2019-03-31T10:33:53.427Z,12.70
2019-03-31T10:34:53.391Z,11.20
2019-03-31T10:35:53.458Z,13.00
2019-03-31T10:36:53.366Z,12.20
2019-03-31T10:37:54.243Z,10.90
2019-03-31T10:38:53.395Z,12.20
2019-03-31T10:39:53.345Z,12.30
2019-03-31T10:40:53.319Z,10.30
2019-03-31T10:41:53.317Z,11.70
2019-03-31T10:42:55.114Z,11.40
2019-03-31T10:43:54.528Z,10.30
2019-03-31T10:44:54.656Z,11.30
2019-03-31T10:45:53.423Z,9.10
2019-03-31T10:46:54.522Z,11.00
2019-03-31T10:47:54.702Z,11.00
2019-03-31T10:48:53.287Z,10.50
2019-03-31T10:49:53.233Z,10.10
2019-03-31T10:50:53.242Z,9.30
2019-03-31T10:51:53.247Z,9.80
2019-03-31T10:52:53.269Z,9.50
2019-03-31T10:53:53.198Z,9.50
2019-03-31T10:54:53.181Z,8.10
2019-03-31T10:55:53.264Z,9.20
2019-03-31T10:56:53.159Z,8.00
2019-03-31T10:57:54.599Z,8.60
2019-03-31T10:58:53.130Z,8.90
2019-03-31T10:59:53.142Z,10.00
2019-03-31T11:00:53.158Z,8.10
2019-03-31T11:01:53.137Z,8.80
2019-03-31T11:02:53.189Z,8.20
2019-03-31T11:03:53.089Z,8.80
2019-03-31T11:04:53.084Z,8.30
2019-03-31T11:05:53.097Z,9.70
2019-03-31T11:06:59.624Z,8.60
2019-03-31T11:07:54.233Z,8.10
2019-03-31T11:08:53.047Z,8.30
2019-03-31T11:09:53.033Z,9.10
2019-03-31T11:10:53.082Z,7.90
2019-03-31T11:11:53.088Z,8.10
2019-03-31T11:12:53.037Z,8.10
2019-03-31T11:13:53.055Z,8.50
2019-03-31T11:14:55.855Z,7.90
2019-03-31T11:15:53.023Z,9.60
2019-03-31T11:16:52.953Z,8.80
2019-03-31T11:17:52.950Z,8.00
2019-03-31T11:18:53.518Z,8.60
2019-03-31T11:19:52.975Z,8.00
2019-03-31T11:20:52.943Z,8.30
2019-03-31T11:21:52.936Z,7.90
2019-03-31T11:22:52.937Z,8.60
2019-03-31T11:23:53.535Z,9.30
2019-03-31T11:24:52.891Z,10.60
2019-03-31T11:25:52.893Z,8.40
2019-03-31T11:26:52.843Z,9.70
2019-03-31T11:27:55.077Z,9.70
2019-03-31T11:28:52.896Z,9.20
2019-03-31T11:29:54.297Z,8.40
2019-03-31T11:30:52.810Z,8.80
2019-03-31T11:31:52.903Z,9.00
2019-03-31T11:32:54.576Z,9.50
2019-03-31T11:33:52.786Z,8.70
2019-03-31T11:34:52.782Z,8.50
2019-03-31T11:35:52.782Z,8.70
2019-03-31T11:36:57.072Z,9.10
2019-03-31T11:37:52.743Z,7.90
2019-03-31T11:38:52.805Z,8.10
2019-03-31T11:39:53.650Z,7.10
2019-03-31T11:40:52.760Z,8.50
2019-03-31T11:41:53.275Z,9.90
2019-03-31T11:42:52.687Z,7.70
2019-03-31T11:43:52.712Z,8.10
2019-03-31T11:44:52.669Z,7.40
2019-03-31T11:45:52.698Z,7.80
2019-03-31T11:46:52.657Z,6.60
2019-03-31T11:47:52.646Z,6.80
2019-03-31T11:48:52.740Z,8.30
2019-03-31T11:49:52.583Z,7.90
2019-03-31T11:50:53.813Z,7.30
2019-03-31T11:51:52.673Z,4.70
2019-03-31T11:52:52.573Z,5.70
2019-03-31T11:53:52.586Z,4.50
2019-03-31T11:54:52.579Z,6.30
2019-03-31T11:55:52.686Z,5.30
2019-03-31T11:56:52.561Z,5.70
2019-03-31T11:57:52.519Z,5.20
2019-03-31T11:58:52.509Z,4.80
2019-03-31T11:59:52.563Z,5.30
2019-03-31T12:00:52.501Z,3.90
2019-03-31T12:01:52.712Z,3.20
2019-03-31T12:02:52.512Z,4.30
2019-03-31T12:03:52.650Z,3.70
2019-03-31T12:04:52.439Z,4.60
2019-03-31T12:05:52.456Z,4.60
2019-03-31T12:06:53.045Z,4.20
2019-03-31T12:07:52.520Z,3.80
2019-03-31T12:08:52.481Z,4.40
2019-03-31T12:09:52.557Z,3.70
2019-03-31T12:10:54.370Z,5.00
2019-03-31T12:11:52.460Z,3.50
2019-03-31T12:12:52.514Z,4.00
2019-03-31T12:13:52.465Z,3.90
2019-03-31T12:15:00.199Z,4.10
2019-03-31T12:15:54.802Z,2.80
2019-03-31T12:16:52.507Z,3.60
2019-03-31T12:17:53.288Z,5.70
2019-03-31T12:18:53.527Z,4.20
2019-03-31T12:19:52.363Z,3.90
2019-03-31T12:20:52.564Z,2.60
2019-03-31T12:21:52.428Z,4.10
2019-03-31T12:22:52.339Z,4.00
2019-03-31T12:23:52.277Z,4.30
2019-03-31T12:24:52.450Z,3.80
2019-03-31T12:25:53.636Z,3.40
2019-03-31T12:26:52.195Z,4.40
2019-03-31T12:27:52.241Z,4.50
2019-03-31T12:28:53.210Z,4.10
2019-03-31T12:29:52.359Z,5.60
2019-03-31T12:30:52.188Z,4.20
2019-03-31T12:31:52.208Z,4.20
2019-03-31T12:32:53.031Z,4.30
2019-03-31T12:33:52.318Z,3.60
2019-03-31T12:34:52.127Z,5.40
2019-03-31T12:35:52.142Z,5.60
2019-03-31T12:36:52.175Z,5.00
2019-03-31T12:37:52.178Z,7.60
2019-03-31T12:38:53.824Z,5.40
2019-03-31T12:39:52.128Z,6.30
2019-03-31T12:40:52.063Z,7.10
2019-03-31T12:41:52.074Z,5.10
2019-03-31T12:42:53.035Z,3.70
2019-03-31T12:43:52.072Z,5.50
2019-03-31T12:44:52.121Z,4.60
2019-03-31T12:45:53.546Z,3.40
2019-03-31T12:46:56.039Z,5.00
2019-03-31T12:47:52.623Z,2.40
2019-03-31T12:48:51.979Z,3.90
2019-03-31T12:49:52.551Z,5.40
2019-03-31T12:50:52.775Z,4.00
2019-03-31T12:51:55.126Z,3.30
2019-03-31T12:52:53.271Z,3.50
2019-03-31T12:53:52.128Z,5.00
2019-03-31T12:54:51.967Z,4.80
2019-03-31T12:56:00.112Z,4.70
2019-03-31T12:56:54.721Z,4.70
2019-03-31T12:57:52.279Z,5.30
2019-03-31T12:58:51.948Z,4.40